Time;durP1;ratioP1;P1;durP2;ratioP2;P2;SDS_P1;SDS_P2;PMS_P1;PMS_P2;Temp;Humidity;BMP_temperature;BMP_pressure;BME280_temperature;BME280_humidity;BME280_pressure;Samples;Min_cycle;Max_cycle;Signal;HPM_P1;HPM_P2
2022/01/25 00:10:39;;;;;;;63.13;31.93;;;1.90;99.90;;;;;;5054207;28;20686;-68
2022/01/25 00:24:23;;;;;;;60.80;30.23;;;2.00;99.90;;;;;;5053816;28;20563;-66
2022/01/25 00:27:04;;;;;;;60.03;29.67;;;2.00;99.90;;;;;;5054436;28;20205;-67
2022/01/25 00:29:46;;;;;;;56.40;29.67;;;1.90;99.90;;;;;;5055061;28;20201;-67
2022/01/25 00:32:13;;;;;;;55.23;28.73;;;1.90;99.90;;;;;;5052345;28;20202;-67
2022/01/25 00:34:40;;;;;;;53.23;28.13;;;1.90;99.90;;;;;;5054290;28;20202;-67
2022/01/25 00:37:07;;;;;;;54.83;28.50;;;2.00;99.90;;;;;;5051279;28;20217;-67
2022/01/25 00:39:37;;;;;;;60.20;30.70;;;2.00;99.90;;;;;;5054387;28;20252;-66
2022/01/25 00:42:05;;;;;;;56.53;29.60;;;2.00;99.90;;;;;;5054325;28;20528;-69
2022/01/25 00:44:36;;;;;;;56.47;30.80;;;2.00;99.90;;;;;;5053932;28;20233;-67
2022/01/25 00:47:06;;;;;;;54.43;29.80;;;2.00;99.90;;;;;;5054350;28;20679;-68
2022/01/25 00:49:36;;;;;;;57.33;28.97;;;2.00;99.90;;;;;;5054369;28;20574;-67
2022/01/25 00:52:18;;;;;;;54.87;29.80;;;2.00;99.90;;;;;;5054365;28;20209;-66
2022/01/25 00:54:47;;;;;;;56.57;29.67;;;2.00;99.90;;;;;;5052850;28;20601;-66
2022/01/25 00:57:15;;;;;;;55.67;28.83;;;2.00;99.90;;;;;;5054807;28;20276;-67
2022/01/25 00:59:42;;;;;;;53.80;28.73;;;2.00;99.90;;;;;;5052603;28;20320;-67
2022/01/25 01:02:13;;;;;;;56.50;27.83;;;2.00;99.90;;;;;;5054252;28;20296;-68
2022/01/25 01:04:41;;;;;;;54.70;27.43;;;2.00;99.90;;;;;;5053757;28;20202;-67
2022/01/25 01:07:11;;;;;;;44.17;25.60;;;2.00;99.90;;;;;;5054060;28;20202;-67
2022/01/25 01:09:40;;;;;;;46.90;25.97;;;2.00;99.90;;;;;;5054156;28;20209;-66
2022/01/25 01:12:15;;;;;;;50.57;26.73;;;2.00;99.90;;;;;;5054182;28;20242;-66
2022/01/25 01:14:58;;;;;;;44.43;25.83;;;2.00;99.90;;;;;;5042114;28;20205;-66
2022/01/25 01:29:06;;;;;;;46.47;24.53;;;2.10;99.90;;;;;;5068697;28;20203;-66
2022/01/25 01:31:48;;;;;;;49.07;25.70;;;2.10;99.90;;;;;;5068062;28;20720;-66
2022/01/25 01:37:31;;;;;;;51.73;26.90;;;2.10;99.90;;;;;;5068390;28;20263;-67
2022/01/25 01:40:13;;;;;;;53.50;25.97;;;2.10;99.90;;;;;;5067891;28;20232;-65
2022/01/25 01:45:33;;;;;;;54.90;26.80;;;2.10;99.90;;;;;;5060338;28;20273;-66
2022/01/25 01:48:04;;;;;;;65.10;29.07;;;2.10;99.90;;;;;;5068463;28;20212;-67
2022/01/25 01:50:34;;;;;;;56.67;28.87;;;2.10;99.90;;;;;;5068045;28;20279;-65
2022/01/25 01:53:04;;;;;;;56.57;27.60;;;2.10;99.90;;;;;;5068454;28;20218;-66
2022/01/25 01:55:33;;;;;;;58.00;27.60;;;2.20;99.90;;;;;;5068548;28;20576;-66
2022/01/25 01:58:00;;;;;;;62.03;28.00;;;2.20;99.90;;;;;;5059748;28;20244;-67
2022/01/25 02:00:31;;;;;;;56.73;28.77;;;2.20;99.90;;;;;;5067611;28;20224;-66
2022/01/25 02:02:59;;;;;;;56.97;27.17;;;2.20;99.90;;;;;;5063422;28;20205;-66
2022/01/25 02:05:26;;;;;;;58.30;26.90;;;2.20;99.90;;;;;;5067651;28;20215;-67
2022/01/25 02:07:53;;;;;;;57.57;26.93;;;2.20;99.90;;;;;;5057900;28;20209;-67
2022/01/25 02:10:21;;;;;;;56.10;27.53;;;2.20;99.90;;;;;;5063768;28;20208;-67
2022/01/25 02:12:50;;;;;;;56.67;26.57;;;2.20;99.90;;;;;;5067153;28;20205;-67
2022/01/25 02:15:17;;;;;;;54.73;27.33;;;2.30;99.90;;;;;;5065533;28;20625;-66
2022/01/25 02:22:22;;;;;;;54.53;27.10;;;2.20;99.90;;;;;;5065704;28;20665;-66
2022/01/25 02:23:29;;;;;;;52.30;25.57;;;2.20;99.90;;;;;;5063023;28;20208;-67
2022/01/25 02:25:58;;;;;;;47.43;23.37;;;2.20;99.90;;;;;;5053455;28;20202;-67
2022/01/25 02:28:29;;;;;;;48.80;23.03;;;2.20;99.90;;;;;;5066784;28;20209;-66
2022/01/25 02:30:57;;;;;;;42.57;23.00;;;2.20;99.90;;;;;;5054895;28;20202;-66
2022/01/25 02:33:24;;;;;;;46.43;22.00;;;2.20;99.90;;;;;;5047471;28;20941;-67
2022/01/25 02:35:53;;;;;;;49.53;23.87;;;2.20;99.90;;;;;;5047120;28;20682;-67
2022/01/25 02:38:25;;;;;;;45.07;22.00;;;2.20;99.90;;;;;;5051487;28;20209;-66
2022/01/25 02:40:53;;;;;;;43.97;22.70;;;2.20;99.90;;;;;;5054403;28;20221;-67
2022/01/25 02:43:21;;;;;;;49.53;23.30;;;2.20;99.90;;;;;;5050439;28;20225;-67
2022/01/25 02:46:05;;;;;;;40.63;21.77;;;2.20;99.90;;;;;;5039790;28;20210;-67
2022/01/25 02:48:31;;;;;;;42.17;21.73;;;2.10;99.90;;;;;;5053996;28;20209;-67
2022/01/25 02:51:01;;;;;;;50.17;22.67;;;2.20;99.90;;;;;;5054466;28;20201;-66
2022/01/25 02:53:29;;;;;;;46.07;23.70;;;2.20;99.90;;;;;;5043971;28;20207;-67
2022/01/25 02:55:56;;;;;;;38.07;20.50;;;2.20;99.90;;;;;;5051605;28;20220;-67
2022/01/25 02:58:23;;;;;;;35.67;20.07;;;2.20;99.90;;;;;;5049288;28;20274;-67
2022/01/25 03:00:50;;;;;;;40.40;20.93;;;2.20;99.90;;;;;;5039278;28;20232;-66
2022/01/25 03:03:16;;;;;;;38.20;20.10;;;2.20;99.90;;;;;;5054079;28;20206;-66
2022/01/25 03:05:44;;;;;;;35.60;18.90;;;2.20;99.90;;;;;;5039903;28;20202;-67
2022/01/25 03:08:14;;;;;;;37.60;20.10;;;2.20;99.90;;;;;;5053967;28;20574;-67
2022/01/25 03:10:43;;;;;;;36.17;19.47;;;2.20;99.90;;;;;;5054056;28;20210;-67
2022/01/25 03:13:16;;;;;;;37.13;19.10;;;2.20;99.90;;;;;;5054873;28;20312;-66
2022/01/25 03:15:57;;;;;;;40.00;20.57;;;2.20;99.90;;;;;;5054811;28;20244;-66
2022/01/25 03:18:38;;;;;;;39.20;20.73;;;2.20;99.90;;;;;;5046421;28;20242;-66
2022/01/25 03:21:33;;;;;;;41.50;20.10;;;2.20;99.90;;;;;;5052045;28;20284;-67
2022/01/25 03:24:02;;;;;;;38.83;19.63;;;2.20;99.90;;;;;;5053644;28;20206;-66
2022/01/25 03:26:28;;;;;;;39.53;20.53;;;2.20;99.90;;;;;;5038921;28;20217;-66
2022/01/25 03:28:56;;;;;;;42.60;21.43;;;2.30;99.90;;;;;;5046409;28;20206;-67
2022/01/25 03:31:23;;;;;;;43.03;21.60;;;2.30;99.90;;;;;;5054459;28;20206;-66
2022/01/25 03:33:50;;;;;;;37.27;18.40;;;2.30;99.90;;;;;;5054149;28;20232;-66
2022/01/25 03:36:18;;;;;;;42.17;19.77;;;2.30;99.90;;;;;;5051666;28;20657;-65
2022/01/25 03:38:47;;;;;;;40.67;19.60;;;2.20;99.90;;;;;;5043778;28;20256;-66
2022/01/25 03:41:16;;;;;;;35.47;19.37;;;2.30;99.90;;;;;;5052059;28;20214;-67
2022/01/25 03:43:50;;;;;;;41.40;18.50;;;2.30;99.90;;;;;;5041230;28;20216;-66
2022/01/25 03:46:22;;;;;;;37.90;19.53;;;2.20;99.90;;;;;;5039121;28;20246;-66
2022/01/25 03:51:34;;;;;;;35.60;18.63;;;2.30;99.90;;;;;;5053076;28;20291;-66
2022/01/25 03:54:00;;;;;;;39.30;19.77;;;2.40;99.90;;;;;;5053478;28;20212;-66
2022/01/25 03:56:29;;;;;;;38.07;19.33;;;2.40;99.90;;;;;;5052648;28;20226;-66
2022/01/25 03:58:56;;;;;;;36.47;19.03;;;2.40;99.90;;;;;;5051063;28;20228;-67
2022/01/25 04:01:23;;;;;;;36.63;18.47;;;2.40;99.90;;;;;;5051266;28;20208;-66
2022/01/25 04:03:57;;;;;;;33.90;17.37;;;2.40;99.90;;;;;;5049184;28;20206;-65
2022/01/25 04:06:25;;;;;;;37.23;18.67;;;2.40;99.90;;;;;;5051627;28;20205;-66
2022/01/25 04:08:52;;;;;;;34.13;17.60;;;2.40;99.90;;;;;;5051780;28;20575;-66
2022/01/25 04:11:19;;;;;;;33.00;17.23;;;2.40;99.90;;;;;;5049690;28;20226;-67
2022/01/25 04:13:51;;;;;;;35.93;18.20;;;2.30;99.90;;;;;;5053400;28;20209;-66
2022/01/25 04:16:22;;;;;;;36.77;18.30;;;2.30;99.90;;;;;;5053199;28;20300;-66
2022/01/25 04:19:00;;;;;;;32.53;17.23;;;2.30;99.90;;;;;;5043736;28;20241;-66
2022/01/25 04:24:39;;;;;;;34.17;16.87;;;2.30;99.90;;;;;;5039209;28;20324;-66
2022/01/25 04:27:21;;;;;;;34.60;16.70;;;2.30;99.90;;;;;;5011789;28;20569;-66
2022/01/25 04:29:49;;;;;;;32.93;16.20;;;2.30;99.90;;;;;;5047501;28;20198;-66
2022/01/25 04:32:16;;;;;;;36.80;16.20;;;2.30;99.90;;;;;;5038919;28;20249;-66
2022/01/25 04:34:46;;;;;;;30.63;15.90;;;2.20;99.90;;;;;;5038141;28;20233;-66
2022/01/25 04:51:28;;;;;;;33.57;16.47;;;2.30;99.90;;;;;;5053311;28;20355;-67
2022/01/25 04:54:00;;;;;;;31.07;15.00;;;2.30;99.90;;;;;;5052553;28;20194;-67
2022/01/25 04:56:34;;;;;;;32.93;14.63;;;2.30;99.90;;;;;;5054014;28;20236;-67
2022/01/25 04:59:07;;;;;;;30.90;16.13;;;2.30;99.90;;;;;;5036903;28;20293;-66
2022/01/25 05:01:37;;;;;;;31.33;15.27;;;2.30;99.90;;;;;;5053997;28;20210;-67
2022/01/25 05:04:09;;;;;;;36.90;16.23;;;2.30;99.90;;;;;;5045798;28;20205;-66
2022/01/25 05:06:35;;;;;;;30.40;15.43;;;2.40;99.90;;;;;;5047719;28;20209;-66
2022/01/25 05:09:09;;;;;;;30.73;15.13;;;2.40;99.90;;;;;;5053008;28;20210;-66
2022/01/25 05:11:43;;;;;;;36.00;15.90;;;2.40;99.90;;;;;;5051884;28;20206;-66
2022/01/25 05:14:21;;;;;;;32.37;15.87;;;2.40;99.90;;;;;;5053998;28;20212;-66
2022/01/25 05:16:56;;;;;;;27.97;14.70;;;2.40;99.90;;;;;;5053649;28;20201;-67
2022/01/25 05:22:06;;;;;;;31.70;15.90;;;2.40;99.90;;;;;;5022012;28;20253;-67
2022/01/25 05:24:35;;;;;;;30.53;15.57;;;2.40;99.90;;;;;;5038994;28;20198;-66
2022/01/25 05:27:02;;;;;;;30.00;15.10;;;2.40;99.90;;;;;;5048383;28;20221;-67
2022/01/25 05:29:29;;;;;;;33.07;15.70;;;2.40;99.90;;;;;;5050120;28;20292;-66
2022/01/25 05:31:57;;;;;;;35.30;15.90;;;2.40;99.90;;;;;;5052291;28;20551;-67
2022/01/25 05:34:24;;;;;;;33.97;16.77;;;2.40;99.90;;;;;;5051735;28;20366;-66
2022/01/25 05:36:51;;;;;;;35.77;16.07;;;2.50;99.90;;;;;;5061727;28;20969;-66
2022/01/25 05:39:21;;;;;;;33.60;16.27;;;2.50;99.90;;;;;;5053209;28;20205;-68
2022/01/25 05:41:56;;;;;;;30.37;15.97;;;2.50;99.90;;;;;;5047104;28;20490;-67
2022/01/25 05:44:27;;;;;;;36.27;16.93;;;2.50;99.90;;;;;;5046185;28;20206;-66
2022/01/25 05:47:05;;;;;;;30.77;14.67;;;2.50;99.90;;;;;;5051056;28;20255;-66
2022/01/25 05:49:37;;;;;;;33.33;16.63;;;2.50;99.90;;;;;;5048199;28;20221;-67
2022/01/25 05:52:06;;;;;;;33.50;16.80;;;2.50;99.90;;;;;;5053670;28;20206;-66
2022/01/25 05:54:32;;;;;;;31.73;16.97;;;2.50;99.90;;;;;;5052664;28;20238;-66
2022/01/25 05:56:59;;;;;;;36.93;16.93;;;2.50;99.90;;;;;;5039308;28;20565;-68
2022/01/25 05:59:26;;;;;;;34.37;16.03;;;2.50;99.90;;;;;;5052899;28;20237;-67
2022/01/25 06:01:53;;;;;;;36.60;17.40;;;2.60;99.90;;;;;;5053064;28;20621;-66
2022/01/25 06:04:22;;;;;;;35.50;16.70;;;2.60;99.90;;;;;;5034477;28;20217;-68
2022/01/25 06:06:50;;;;;;;34.07;17.03;;;2.60;99.90;;;;;;5050335;28;20258;-66
2022/01/25 06:09:18;;;;;;;35.63;15.93;;;2.60;99.90;;;;;;5057057;28;20248;-67
2022/01/25 06:11:45;;;;;;;36.60;16.73;;;2.60;99.90;;;;;;5057566;28;20288;-67
2022/01/25 06:14:12;;;;;;;35.03;15.03;;;2.60;99.90;;;;;;5043195;28;20210;-67
2022/01/25 06:16:38;;;;;;;32.13;15.40;;;2.70;99.90;;;;;;5044030;28;20282;-68
2022/01/25 06:19:06;;;;;;;33.23;15.87;;;2.60;99.90;;;;;;5050270;28;20234;-68
2022/01/25 06:21:33;;;;;;;32.93;15.63;;;2.70;99.90;;;;;;5056487;28;20587;-71
2022/01/25 06:24:01;;;;;;;36.63;16.17;;;2.70;99.90;;;;;;5054869;28;20202;-67
2022/01/25 06:26:28;;;;;;;29.33;15.60;;;2.70;99.90;;;;;;5045524;28;20205;-66
2022/01/25 06:28:55;;;;;;;31.53;14.77;;;2.70;99.90;;;;;;5055623;28;20237;-66
2022/01/25 06:31:22;;;;;;;31.93;14.13;;;2.70;99.90;;;;;;5054632;28;20197;-67
2022/01/25 06:33:49;;;;;;;37.30;15.67;;;2.70;99.90;;;;;;5056350;28;20282;-68
2022/01/25 06:36:18;;;;;;;36.70;16.80;;;2.70;99.90;;;;;;5055474;28;20236;-67
2022/01/25 06:38:45;;;;;;;36.70;16.43;;;2.70;99.90;;;;;;5051033;28;20224;-69
2022/01/25 06:41:14;;;;;;;34.30;15.77;;;2.60;99.90;;;;;;5053884;28;20241;-68
2022/01/25 06:43:41;;;;;;;37.87;16.27;;;2.60;99.90;;;;;;5045198;28;20221;-70
2022/01/25 06:46:08;;;;;;;33.60;16.37;;;2.60;99.90;;;;;;5056028;28;20694;-69
2022/01/25 06:48:35;;;;;;;37.33;16.90;;;2.60;99.90;;;;;;5043702;28;20306;-69
2022/01/25 06:51:02;;;;;;;31.77;15.20;;;2.60;99.90;;;;;;5056469;28;20297;-70
2022/01/25 06:53:29;;;;;;;36.37;16.87;;;2.60;99.90;;;;;;5040689;28;20230;-70
2022/01/25 06:55:56;;;;;;;33.67;15.00;;;2.60;99.90;;;;;;5054317;28;20216;-69
2022/01/25 06:58:24;;;;;;;34.23;16.13;;;2.60;99.90;;;;;;5051088;28;20206;-70
2022/01/25 07:00:51;;;;;;;36.50;16.40;;;2.50;99.90;;;;;;5054271;28;20225;-70
2022/01/25 07:03:18;;;;;;;38.17;17.97;;;2.60;99.90;;;;;;5050553;28;20241;-70
2022/01/25 07:05:45;;;;;;;35.93;17.60;;;2.60;99.90;;;;;;5044997;28;20225;-70
2022/01/25 07:08:12;;;;;;;35.80;16.40;;;2.60;99.90;;;;;;5050332;28;20202;-70
2022/01/25 07:10:39;;;;;;;34.87;16.83;;;2.60;99.90;;;;;;5044700;28;20238;-70
2022/01/25 07:13:06;;;;;;;35.60;16.53;;;2.60;99.90;;;;;;5040923;28;20238;-69
2022/01/25 07:15:35;;;;;;;33.33;16.90;;;2.60;99.90;;;;;;5048240;28;20357;-70
2022/01/25 07:18:02;;;;;;;33.00;16.23;;;2.60;99.90;;;;;;5045936;28;20198;-69
2022/01/25 07:20:29;;;;;;;36.90;16.73;;;2.60;99.90;;;;;;5035735;28;20321;-71
2022/01/25 07:22:56;;;;;;;34.53;17.00;;;2.60;99.90;;;;;;5034375;28;20210;-69
2022/01/25 07:25:25;;;;;;;38.40;18.13;;;2.60;99.90;;;;;;5029795;28;20639;-69
2022/01/25 07:27:52;;;;;;;38.03;17.83;;;2.60;99.90;;;;;;5032314;28;20257;-69
2022/01/25 07:30:19;;;;;;;37.57;16.93;;;2.60;99.90;;;;;;5030577;28;20221;-70
2022/01/25 07:32:47;;;;;;;36.37;16.40;;;2.60;99.90;;;;;;5020529;28;20298;-70
2022/01/25 07:35:14;;;;;;;34.23;16.53;;;2.60;99.90;;;;;;5027730;28;20729;-69
2022/01/25 07:37:42;;;;;;;28.90;16.40;;;2.60;99.90;;;;;;5034186;28;20234;-70
2022/01/25 07:40:10;;;;;;;29.87;15.37;;;2.70;99.90;;;;;;5027358;28;20226;-70
2022/01/25 07:42:39;;;;;;;33.50;16.77;;;2.70;99.90;;;;;;5035253;28;20219;-69
2022/01/25 07:45:10;;;;;;;32.63;17.23;;;2.70;99.90;;;;;;5025174;28;20206;-68
2022/01/25 07:47:37;;;;;;;32.00;15.57;;;2.70;99.90;;;;;;5023751;28;20262;-69
2022/01/25 07:50:08;;;;;;;29.00;15.60;;;2.60;99.90;;;;;;5027183;28;20286;-70
2022/01/25 07:52:35;;;;;;;29.87;15.10;;;2.70;99.90;;;;;;5034796;28;20333;-70
2022/01/25 07:55:03;;;;;;;30.03;15.43;;;2.70;99.90;;;;;;5033494;28;20210;-69
2022/01/25 07:57:30;;;;;;;32.67;15.53;;;2.70;99.90;;;;;;5026916;28;20294;-69
2022/01/25 07:59:57;;;;;;;31.83;16.00;;;2.70;99.90;;;;;;5033552;28;20206;-68
2022/01/25 08:02:25;;;;;;;32.73;15.03;;;2.70;99.90;;;;;;5032305;28;20202;-70
2022/01/25 08:04:52;;;;;;;30.03;15.23;;;2.70;99.90;;;;;;5033044;28;20214;-70
2022/01/25 08:07:21;;;;;;;30.97;15.57;;;2.70;99.90;;;;;;5033990;28;20259;-71
2022/01/25 08:09:48;;;;;;;27.67;14.97;;;2.70;99.90;;;;;;5032624;28;20214;-70
2022/01/25 08:12:16;;;;;;;26.53;15.23;;;2.70;99.90;;;;;;5029386;28;20202;-70
2022/01/25 08:14:44;;;;;;;26.50;14.90;;;2.70;99.90;;;;;;5036123;28;20698;-71
2022/01/25 08:17:11;;;;;;;28.73;15.37;;;2.70;99.90;;;;;;5024837;28;20217;-71
2022/01/25 08:19:39;;;;;;;27.30;14.87;;;2.80;99.90;;;;;;5046023;28;20242;-68
2022/01/25 08:22:06;;;;;;;28.10;15.33;;;2.70;99.90;;;;;;5052928;28;20227;-70
2022/01/25 08:24:34;;;;;;;27.73;15.27;;;2.70;99.90;;;;;;5043656;28;20665;-70
2022/01/25 08:27:01;;;;;;;29.00;16.03;;;2.70;99.90;;;;;;5053192;28;20206;-71
2022/01/25 08:29:28;;;;;;;30.87;15.30;;;2.80;99.90;;;;;;5050434;28;20261;-70
2022/01/25 08:31:56;;;;;;;22.60;13.87;;;2.80;99.90;;;;;;5048790;28;20242;-70
2022/01/25 08:34:23;;;;;;;27.63;15.53;;;2.80;99.90;;;;;;5041238;28;20237;-69
2022/01/25 08:36:49;;;;;;;30.50;15.63;;;2.80;99.90;;;;;;5041434;28;20210;-69
2022/01/25 08:39:17;;;;;;;25.43;13.57;;;2.80;99.90;;;;;;5054018;28;20202;-68
2022/01/25 08:41:45;;;;;;;25.13;14.63;;;2.80;99.90;;;;;;5053271;28;20249;-70
2022/01/25 08:44:12;;;;;;;27.60;14.83;;;2.80;99.90;;;;;;5048381;28;20210;-68
2022/01/25 08:46:40;;;;;;;24.80;14.83;;;2.90;99.90;;;;;;5041985;28;20595;-68
2022/01/25 08:49:07;;;;;;;28.87;15.00;;;2.90;99.90;;;;;;5053350;28;20206;-68
2022/01/25 08:51:34;;;;;;;26.40;14.57;;;2.90;99.90;;;;;;5051064;28;20717;-70
2022/01/25 08:54:01;;;;;;;25.87;14.73;;;2.90;99.90;;;;;;5052337;28;20202;-68
2022/01/25 08:56:28;;;;;;;22.47;13.70;;;2.90;99.90;;;;;;5052589;28;20225;-68
2022/01/25 08:58:56;;;;;;;27.87;15.07;;;2.90;99.90;;;;;;5051174;28;20638;-68
2022/01/25 09:01:23;;;;;;;26.10;14.97;;;2.90;99.90;;;;;;5052524;28;20232;-69
2022/01/25 09:03:50;;;;;;;24.87;13.97;;;3.00;99.90;;;;;;5042605;28;20206;-69
2022/01/25 09:06:18;;;;;;;26.03;13.50;;;3.00;99.90;;;;;;5046756;28;20296;-70
2022/01/25 09:08:45;;;;;;;24.17;14.47;;;3.00;99.90;;;;;;5041603;28;20210;-69
2022/01/25 09:11:12;;;;;;;23.33;13.97;;;3.00;99.90;;;;;;5052535;28;20298;-69
2022/01/25 09:13:39;;;;;;;24.13;13.90;;;3.00;99.90;;;;;;5046449;28;21849;-68
2022/01/25 09:16:08;;;;;;;22.87;13.60;;;3.00;99.90;;;;;;5045459;28;20209;-68
2022/01/25 09:18:36;;;;;;;24.10;14.80;;;3.00;99.90;;;;;;5051172;28;20309;-68
2022/01/25 09:21:04;;;;;;;23.27;14.80;;;3.00;99.90;;;;;;5041796;28;20215;-69
2022/01/25 09:23:31;;;;;;;24.97;14.80;;;3.10;99.90;;;;;;5049229;28;20214;-69
2022/01/25 09:25:59;;;;;;;23.10;13.47;;;3.10;99.90;;;;;;5042975;28;20216;-68
2022/01/25 09:28:25;;;;;;;23.87;14.17;;;3.10;99.90;;;;;;5045157;28;20212;-68
2022/01/25 09:30:52;;;;;;;21.10;13.30;;;3.20;99.90;;;;;;5042544;28;20233;-68
2022/01/25 09:33:21;;;;;;;22.87;13.83;;;3.20;99.90;;;;;;5046762;28;20750;-68
2022/01/25 09:35:48;;;;;;;25.10;14.53;;;3.20;99.90;;;;;;5047258;28;20214;-68
2022/01/25 09:38:15;;;;;;;23.80;14.53;;;3.20;99.90;;;;;;5046839;28;20663;-69
2022/01/25 09:40:43;;;;;;;24.60;14.80;;;3.20;99.90;;;;;;5042659;28;20285;-68
2022/01/25 09:43:10;;;;;;;25.17;15.30;;;3.20;99.90;;;;;;5052193;28;20279;-69
2022/01/25 09:45:38;;;;;;;26.37;14.30;;;3.20;99.90;;;;;;5047524;28;20209;-69
2022/01/25 09:48:07;;;;;;;25.77;14.20;;;3.10;99.90;;;;;;5055664;28;20194;-71
2022/01/25 09:50:36;;;;;;;27.83;17.27;;;3.20;99.90;;;;;;5050841;28;20504;-72
2022/01/25 09:53:04;;;;;;;27.97;15.93;;;3.20;99.90;;;;;;5050763;28;20609;-72
2022/01/25 09:55:34;;;;;;;25.60;15.33;;;3.20;99.90;;;;;;5042169;28;20213;-69
2022/01/25 09:58:02;;;;;;;24.80;13.47;;;3.30;99.90;;;;;;5050152;28;20254;-72
2022/01/25 10:00:31;;;;;;;21.73;13.30;;;3.20;99.90;;;;;;5048561;28;20254;-71
2022/01/25 10:03:06;;;;;;;22.87;13.83;;;3.30;99.90;;;;;;5050023;28;20225;-70
2022/01/25 10:05:37;;;;;;;20.73;13.60;;;3.40;99.90;;;;;;5053202;28;20244;-71
2022/01/25 10:08:06;;;;;;;19.00;13.03;;;3.40;99.90;;;;;;5050102;28;20313;-72
2022/01/25 10:10:37;;;;;;;22.10;13.10;;;3.40;99.90;;;;;;5051631;28;20281;-70
2022/01/25 10:13:14;;;;;;;22.50;13.57;;;3.40;99.90;;;;;;5057182;28;20626;-72
2022/01/25 10:15:42;;;;;;;23.50;13.93;;;3.40;99.90;;;;;;5046030;28;20197;-71
2022/01/25 10:18:10;;;;;;;24.40;14.60;;;3.50;99.90;;;;;;5044941;28;20586;-71
2022/01/25 10:20:41;;;;;;;22.73;13.57;;;3.50;99.90;;;;;;5051175;28;20727;-71
2022/01/25 10:23:13;;;;;;;18.93;12.00;;;3.50;99.90;;;;;;5039763;28;20211;-70
2022/01/25 10:25:42;;;;;;;19.80;11.90;;;3.60;99.90;;;;;;5048423;28;20233;-72
2022/01/25 10:28:13;;;;;;;17.67;11.23;;;3.60;99.90;;;;;;5047756;28;20208;-72
2022/01/25 10:30:49;;;;;;;19.07;11.37;;;3.60;99.90;;;;;;5047132;28;20221;-70
2022/01/25 10:33:28;;;;;;;14.83;10.40;;;3.60;99.90;;;;;;5041219;28;20714;-70
2022/01/25 10:35:58;;;;;;;17.73;11.63;;;3.60;99.90;;;;;;5046700;28;20206;-71
2022/01/25 10:38:29;;;;;;;17.77;11.03;;;3.50;99.90;;;;;;5048988;28;20228;-69
2022/01/25 10:40:59;;;;;;;21.87;12.27;;;3.50;99.90;;;;;;5050061;28;20241;-68
2022/01/25 10:43:27;;;;;;;18.50;11.37;;;3.60;99.90;;;;;;5044024;28;20296;-73
2022/01/25 10:46:16;;;;;;;18.37;11.67;;;3.60;99.90;;;;;;5059344;28;20223;-72
2022/01/25 10:48:47;;;;;;;15.93;9.70;;;3.60;99.90;;;;;;5042856;28;20602;-73
2022/01/25 10:51:19;;;;;;;16.37;10.50;;;3.60;99.90;;;;;;5055812;28;20622;-72
2022/01/25 10:53:56;;;;;;;15.33;10.10;;;3.60;99.90;;;;;;5043074;28;20205;-72
2022/01/25 10:56:25;;;;;;;17.63;11.57;;;3.60;99.90;;;;;;5051947;28;20333;-71
2022/01/25 10:58:52;;;;;;;18.63;11.67;;;3.60;99.90;;;;;;5048373;28;20215;-71
2022/01/25 11:01:31;;;;;;;16.67;10.73;;;3.60;99.90;;;;;;5051018;28;20304;-72
2022/01/25 11:04:06;;;;;;;14.53;9.70;;;3.60;99.90;;;;;;5050205;28;20210;-71
2022/01/25 11:06:35;;;;;;;14.57;9.60;;;3.60;99.90;;;;;;5052950;28;20243;-70
2022/01/25 11:09:05;;;;;;;16.03;10.00;;;3.60;99.90;;;;;;5047966;28;20289;-72
2022/01/25 11:11:36;;;;;;;15.03;10.00;;;3.60;99.90;;;;;;5056426;28;20609;-72
2022/01/25 11:16:47;;;;;;;17.73;11.00;;;3.60;99.90;;;;;;5048079;28;20202;-70
2022/01/25 11:19:14;;;;;;;22.20;10.27;;;3.70;99.90;;;;;;5050531;28;20321;-71
2022/01/25 11:21:44;;;;;;;14.70;10.23;;;3.70;99.90;;;;;;5045630;28;20774;-71
2022/01/25 11:24:13;;;;;;;14.70;10.17;;;3.70;99.90;;;;;;5048057;28;20650;-72
2022/01/25 11:26:42;;;;;;;14.07;10.37;;;3.80;99.90;;;;;;5054775;28;20201;-72
2022/01/25 11:29:10;;;;;;;15.47;10.07;;;3.80;99.90;;;;;;5052068;28;20206;-73
2022/01/25 11:31:41;;;;;;;15.17;11.17;;;3.90;99.90;;;;;;5049371;28;20209;-72
2022/01/25 11:34:13;;;;;;;13.33;9.17;;;3.80;99.90;;;;;;5045885;28;20198;-71
2022/01/25 11:36:47;;;;;;;11.47;9.17;;;3.80;99.90;;;;;;5046161;28;20213;-71
2022/01/25 11:39:19;;;;;;;12.07;7.90;;;3.90;99.90;;;;;;5048620;28;20210;-71
2022/01/25 11:41:46;;;;;;;10.67;7.93;;;3.90;99.90;;;;;;5051268;28;20210;-72
2022/01/25 11:44:18;;;;;;;11.50;8.37;;;3.90;99.90;;;;;;5047416;28;20224;-72
2022/01/25 11:46:56;;;;;;;9.30;7.13;;;3.90;99.90;;;;;;5044582;28;20230;-72
2022/01/25 11:49:24;;;;;;;9.27;6.77;;;4.00;99.90;;;;;;5045919;28;20230;-73
2022/01/25 11:52:07;;;;;;;9.80;6.90;;;4.00;99.90;;;;;;5042930;28;20316;-72
2022/01/25 11:54:37;;;;;;;9.60;6.73;;;4.00;99.90;;;;;;5038401;28;20209;-72
2022/01/25 11:57:13;;;;;;;9.30;6.43;;;4.00;99.90;;;;;;5045680;28;20237;-73
2022/01/25 11:59:40;;;;;;;11.87;7.57;;;4.00;99.90;;;;;;5042565;28;20555;-72
2022/01/25 12:02:07;;;;;;;8.70;6.87;;;4.10;99.90;;;;;;5043799;28;20596;-70
2022/01/25 12:04:34;;;;;;;14.07;6.20;;;4.10;99.90;;;;;;5053404;28;20571;-70
2022/01/25 12:07:08;;;;;;;8.10;6.40;;;4.10;99.90;;;;;;5044540;28;20678;-71
2022/01/25 12:10:02;;;;;;;8.60;6.30;;;4.20;99.90;;;;;;5043328;28;20863;-73
2022/01/25 12:12:29;;;;;;;8.17;6.37;;;4.20;99.90;;;;;;5042379;28;20617;-70
2022/01/25 12:14:56;;;;;;;5.70;5.10;;;4.10;99.90;;;;;;5043025;28;20202;-71
2022/01/25 12:17:24;;;;;;;9.57;6.33;;;4.20;99.90;;;;;;5041871;28;20638;-68
2022/01/25 12:19:54;;;;;;;7.67;5.97;;;4.20;99.90;;;;;;5045179;28;20229;-69
2022/01/25 12:22:38;;;;;;;7.87;6.03;;;4.20;99.90;;;;;;5043012;28;20261;-70
2022/01/25 12:25:13;;;;;;;8.93;5.97;;;4.20;99.90;;;;;;5041420;28;20198;-71
2022/01/25 12:27:47;;;;;;;7.70;5.67;;;4.20;99.90;;;;;;5040312;28;20202;-70
2022/01/25 12:30:29;;;;;;;8.80;6.47;;;4.20;99.90;;;;;;5041910;28;20210;-72
2022/01/25 12:33:01;;;;;;;9.00;6.20;;;4.20;99.90;;;;;;5040880;28;20408;-69
2022/01/25 12:35:40;;;;;;;6.80;5.40;;;4.20;99.90;;;;;;5041798;28;20301;-70
2022/01/25 12:38:12;;;;;;;8.33;5.80;;;4.10;99.90;;;;;;5040755;28;20201;-73
2022/01/25 12:40:48;;;;;;;8.30;5.40;;;4.20;99.90;;;;;;5044051;28;20574;-69
2022/01/25 12:43:18;;;;;;;7.30;5.23;;;4.20;99.90;;;;;;5039712;28;20278;-73
2022/01/25 12:45:48;;;;;;;5.73;5.03;;;4.20;99.90;;;;;;5043403;28;20206;-74
2022/01/25 12:48:17;;;;;;;6.30;5.43;;;4.10;99.90;;;;;;5046050;28;20341;-76
2022/01/25 12:50:48;;;;;;;6.53;4.90;;;4.10;99.90;;;;;;5042468;28;20199;-76
2022/01/25 12:53:18;;;;;;;8.07;5.33;;;4.20;99.90;;;;;;5048849;28;20262;-74
2022/01/25 12:55:48;;;;;;;7.13;5.50;;;4.20;99.90;;;;;;5046276;28;20215;-74
2022/01/25 12:58:15;;;;;;;7.23;5.10;;;4.30;99.90;;;;;;5050438;28;20206;-77
2022/01/25 13:00:44;;;;;;;7.73;5.47;;;4.20;99.90;;;;;;5048417;28;20285;-73
2022/01/25 13:03:27;;;;;;;7.30;5.47;;;4.20;99.90;;;;;;5050049;28;20222;-73
2022/01/25 13:05:57;;;;;;;7.47;4.97;;;4.20;99.90;;;;;;5048277;28;20357;-73
2022/01/25 13:08:28;;;;;;;7.23;5.17;;;4.20;99.90;;;;;;5044468;28;20216;-77
2022/01/25 13:11:23;;;;;;;8.13;5.53;;;4.20;99.90;;;;;;5041809;28;20251;-75
2022/01/25 13:14:01;;;;;;;8.67;5.77;;;4.20;99.90;;;;;;5035686;28;20202;-71
2022/01/25 13:16:52;;;;;;;7.83;5.60;;;4.20;99.90;;;;;;5039404;28;20198;-72
2022/01/25 13:19:22;;;;;;;8.80;5.37;;;4.20;99.90;;;;;;5040294;28;20241;-74
2022/01/25 13:21:54;;;;;;;7.83;6.10;;;4.20;99.90;;;;;;5052197;28;20247;-70
2022/01/25 13:24:25;;;;;;;9.30;6.17;;;4.20;99.90;;;;;;5046417;28;20233;-73
2022/01/25 13:26:58;;;;;;;10.63;5.80;;;4.20;99.90;;;;;;5052553;28;20237;-71
2022/01/25 13:32:18;;;;;;;6.97;5.37;;;4.20;99.90;;;;;;5041929;28;20196;-70
2022/01/25 13:35:00;;;;;;;6.17;5.33;;;4.30;99.90;;;;;;5041601;28;20202;-70
2022/01/25 13:37:27;;;;;;;7.73;5.50;;;4.20;99.90;;;;;;5047777;28;20198;-71
2022/01/25 13:39:59;;;;;;;7.77;5.13;;;4.20;99.90;;;;;;5034479;28;20210;-70
2022/01/25 13:42:36;;;;;;;8.13;5.80;;;4.20;99.90;;;;;;5034255;28;20226;-72
2022/01/25 13:47:59;;;;;;;6.60;5.10;;;4.20;99.90;;;;;;5052104;28;20197;-71
2022/01/25 13:50:27;;;;;;;6.53;5.07;;;4.20;99.90;;;;;;5053561;28;20210;-70
2022/01/25 13:52:54;;;;;;;6.77;5.37;;;4.10;99.90;;;;;;5051668;28;20203;-73
2022/01/25 13:55:21;;;;;;;8.10;5.40;;;4.10;99.90;;;;;;5053402;28;20233;-72
2022/01/25 13:57:50;;;;;;;7.13;5.57;;;4.10;99.90;;;;;;5052631;28;20230;-73
2022/01/25 14:00:20;;;;;;;8.17;5.50;;;4.10;99.90;;;;;;5041048;28;20588;-76
2022/01/25 14:02:50;;;;;;;9.77;6.17;;;4.10;99.90;;;;;;5040412;28;20226;-74
2022/01/25 14:05:17;;;;;;;8.93;5.67;;;4.10;99.90;;;;;;5035525;28;20199;-74
2022/01/25 14:07:48;;;;;;;9.00;5.97;;;4.10;99.90;;;;;;5043261;28;20289;-75